sensor_id;sensor_type;location;lat;lon;timestamp;P1;durP1;ratioP1;P2;durP2;ratioP2
46463;SDS011;32161;48.148;-1.554;2023-03-24T00:02:12;16.30;;;2.78;;
46463;SDS011;32161;48.148;-1.554;2023-03-24T00:04:40;15.93;;;3.85;;
46463;SDS011;32161;48.148;-1.554;2023-03-24T00:07:08;5.78;;;1.75;;
46463;SDS011;32161;48.148;-1.554;2023-03-24T00:09:38;14.15;;;1.88;;
46463;SDS011;32161;48.148;-1.554;2023-03-24T00:12:07;13.18;;;2.55;;
46463;SDS011;32161;48.148;-1.554;2023-03-24T00:14:35;13.40;;;2.17;;
46463;SDS011;32161;48.148;-1.554;2023-03-24T00:17:04;12.93;;;2.90;;
46463;SDS011;32161;48.148;-1.554;2023-03-24T00:19:35;14.45;;;2.30;;
46463;SDS011;32161;48.148;-1.554;2023-03-24T00:22:03;16.50;;;2.97;;
46463;SDS011;32161;48.148;-1.554;2023-03-24T00:24:32;20.98;;;2.45;;
46463;SDS011;32161;48.148;-1.554;2023-03-24T00:27:00;14.40;;;4.60;;
46463;SDS011;32161;48.148;-1.554;2023-03-24T00:29:27;13.20;;;2.35;;
46463;SDS011;32161;48.148;-1.554;2023-03-24T00:31:55;11.02;;;2.30;;
46463;SDS011;32161;48.148;-1.554;2023-03-24T00:34:23;21.95;;;3.13;;
46463;SDS011;32161;48.148;-1.554;2023-03-24T00:36:52;15.30;;;2.28;;
46463;SDS011;32161;48.148;-1.554;2023-03-24T00:39:20;20.75;;;2.17;;
46463;SDS011;32161;48.148;-1.554;2023-03-24T00:41:48;11.68;;;2.40;;
46463;SDS011;32161;48.148;-1.554;2023-03-24T00:44:16;14.40;;;2.78;;
46463;SDS011;32161;48.148;-1.554;2023-03-24T00:46:44;19.80;;;3.25;;
46463;SDS011;32161;48.148;-1.554;2023-03-24T00:49:19;17.20;;;2.13;;
46463;SDS011;32161;48.148;-1.554;2023-03-24T00:52:07;17.77;;;2.58;;
46463;SDS011;32161;48.148;-1.554;2023-03-24T00:54:36;17.92;;;2.85;;
46463;SDS011;32161;48.148;-1.554;2023-03-24T00:57:04;18.55;;;2.88;;
46463;SDS011;32161;48.148;-1.554;2023-03-24T00:59:33;14.60;;;2.45;;
46463;SDS011;32161;48.148;-1.554;2023-03-24T01:02:06;15.05;;;2.15;;
46463;SDS011;32161;48.148;-1.554;2023-03-24T01:04:36;12.43;;;2.35;;
46463;SDS011;32161;48.148;-1.554;2023-03-24T01:07:05;17.60;;;2.70;;
46463;SDS011;32161;48.148;-1.554;2023-03-24T01:09:35;17.65;;;3.47;;
46463;SDS011;32161;48.148;-1.554;2023-03-24T01:12:03;15.63;;;2.65;;
46463;SDS011;32161;48.148;-1.554;2023-03-24T01:14:32;23.17;;;3.00;;
46463;SDS011;32161;48.148;-1.554;2023-03-24T01:17:00;15.27;;;2.60;;
46463;SDS011;32161;48.148;-1.554;2023-03-24T01:19:28;13.60;;;3.45;;
46463;SDS011;32161;48.148;-1.554;2023-03-24T01:21:57;15.60;;;2.38;;
46463;SDS011;32161;48.148;-1.554;2023-03-24T01:24:26;21.33;;;3.40;;
46463;SDS011;32161;48.148;-1.554;2023-03-24T01:26:53;17.33;;;2.65;;
46463;SDS011;32161;48.148;-1.554;2023-03-24T01:29:21;15.25;;;2.70;;
46463;SDS011;32161;48.148;-1.554;2023-03-24T01:31:49;12.80;;;2.35;;
46463;SDS011;32161;48.148;-1.554;2023-03-24T01:34:16;16.02;;;3.53;;
46463;SDS011;32161;48.148;-1.554;2023-03-24T01:36:44;16.55;;;2.75;;
46463;SDS011;32161;48.148;-1.554;2023-03-24T01:39:12;19.88;;;2.95;;
46463;SDS011;32161;48.148;-1.554;2023-03-24T01:41:41;16.50;;;2.85;;
46463;SDS011;32161;48.148;-1.554;2023-03-24T01:44:28;14.82;;;3.08;;
46463;SDS011;32161;48.148;-1.554;2023-03-24T01:47:02;22.45;;;3.55;;
46463;SDS011;32161;48.148;-1.554;2023-03-24T01:49:33;18.33;;;2.85;;
46463;SDS011;32161;48.148;-1.554;2023-03-24T01:52:06;19.65;;;4.00;;
46463;SDS011;32161;48.148;-1.554;2023-03-24T01:54:37;26.08;;;3.30;;
46463;SDS011;32161;48.148;-1.554;2023-03-24T01:57:11;22.25;;;3.10;;
46463;SDS011;32161;48.148;-1.554;2023-03-24T01:59:45;21.52;;;2.38;;
46463;SDS011;32161;48.148;-1.554;2023-03-24T02:02:17;18.67;;;3.28;;
46463;SDS011;32161;48.148;-1.554;2023-03-24T02:04:47;13.45;;;2.78;;
46463;SDS011;32161;48.148;-1.554;2023-03-24T02:07:24;20.70;;;3.80;;
46463;SDS011;32161;48.148;-1.554;2023-03-24T02:09:58;23.48;;;3.55;;
46463;SDS011;32161;48.148;-1.554;2023-03-24T02:12:30;16.98;;;3.13;;
46463;SDS011;32161;48.148;-1.554;2023-03-24T02:14:59;14.80;;;2.83;;
46463;SDS011;32161;48.148;-1.554;2023-03-24T02:17:32;21.20;;;3.58;;
46463;SDS011;32161;48.148;-1.554;2023-03-24T02:20:29;27.93;;;3.53;;
46463;SDS011;32161;48.148;-1.554;2023-03-24T02:23:34;16.27;;;2.38;;
46463;SDS011;32161;48.148;-1.554;2023-03-24T02:26:40;16.95;;;3.17;;
46463;SDS011;32161;48.148;-1.554;2023-03-24T02:29:26;16.35;;;2.30;;
46463;SDS011;32161;48.148;-1.554;2023-03-24T02:36:30;23.20;;;4.40;;
46463;SDS011;32161;48.148;-1.554;2023-03-24T02:39:30;25.13;;;3.08;;
46463;SDS011;32161;48.148;-1.554;2023-03-24T02:42:37;26.35;;;2.88;;
46463;SDS011;32161;48.148;-1.554;2023-03-24T02:45:19;16.88;;;2.92;;
46463;SDS011;32161;48.148;-1.554;2023-03-24T02:47:57;23.30;;;3.67;;
46463;SDS011;32161;48.148;-1.554;2023-03-24T02:50:53;19.08;;;4.00;;
46463;SDS011;32161;48.148;-1.554;2023-03-24T02:53:30;26.13;;;4.15;;
46463;SDS011;32161;48.148;-1.554;2023-03-24T02:56:08;22.35;;;3.00;;
46463;SDS011;32161;48.148;-1.554;2023-03-24T02:58:39;25.58;;;4.28;;
46463;SDS011;32161;48.148;-1.554;2023-03-24T03:01:13;25.90;;;4.95;;
46463;SDS011;32161;48.148;-1.554;2023-03-24T03:03:56;18.67;;;3.55;;
46463;SDS011;32161;48.148;-1.554;2023-03-24T03:06:29;25.02;;;3.35;;
46463;SDS011;32161;48.148;-1.554;2023-03-24T03:09:03;20.50;;;3.63;;
46463;SDS011;32161;48.148;-1.554;2023-03-24T03:11:35;30.00;;;4.72;;
46463;SDS011;32161;48.148;-1.554;2023-03-24T03:14:07;19.75;;;2.75;;
46463;SDS011;32161;48.148;-1.554;2023-03-24T03:16:40;26.25;;;5.40;;
46463;SDS011;32161;48.148;-1.554;2023-03-24T03:19:15;28.45;;;3.20;;
46463;SDS011;32161;48.148;-1.554;2023-03-24T03:21:46;21.17;;;3.28;;
46463;SDS011;32161;48.148;-1.554;2023-03-24T03:24:16;22.10;;;4.25;;
46463;SDS011;32161;48.148;-1.554;2023-03-24T03:26:52;29.20;;;4.85;;
46463;SDS011;32161;48.148;-1.554;2023-03-24T03:29:25;19.42;;;3.70;;
46463;SDS011;32161;48.148;-1.554;2023-03-24T03:31:58;19.67;;;3.30;;
46463;SDS011;32161;48.148;-1.554;2023-03-24T03:34:33;20.15;;;3.58;;
46463;SDS011;32161;48.148;-1.554;2023-03-24T03:37:09;17.80;;;3.03;;
46463;SDS011;32161;48.148;-1.554;2023-03-24T03:39:51;22.05;;;3.88;;
46463;SDS011;32161;48.148;-1.554;2023-03-24T03:42:25;24.33;;;3.80;;
46463;SDS011;32161;48.148;-1.554;2023-03-24T03:44:52;24.50;;;4.55;;
46463;SDS011;32161;48.148;-1.554;2023-03-24T03:47:20;23.77;;;3.47;;
46463;SDS011;32161;48.148;-1.554;2023-03-24T03:49:48;22.00;;;3.35;;
46463;SDS011;32161;48.148;-1.554;2023-03-24T03:52:17;31.42;;;4.05;;
46463;SDS011;32161;48.148;-1.554;2023-03-24T03:54:46;21.38;;;3.80;;
46463;SDS011;32161;48.148;-1.554;2023-03-24T03:57:15;17.88;;;3.08;;
46463;SDS011;32161;48.148;-1.554;2023-03-24T03:59:46;24.88;;;4.03;;
46463;SDS011;32161;48.148;-1.554;2023-03-24T04:02:20;31.27;;;4.28;;
46463;SDS011;32161;48.148;-1.554;2023-03-24T04:05:08;23.10;;;4.00;;
46463;SDS011;32161;48.148;-1.554;2023-03-24T04:08:00;28.17;;;3.47;;
46463;SDS011;32161;48.148;-1.554;2023-03-24T04:10:56;22.85;;;4.05;;
46463;SDS011;32161;48.148;-1.554;2023-03-24T04:14:05;23.48;;;4.10;;
46463;SDS011;32161;48.148;-1.554;2023-03-24T04:16:59;30.23;;;4.00;;
46463;SDS011;32161;48.148;-1.554;2023-03-24T04:19:41;25.23;;;4.05;;
46463;SDS011;32161;48.148;-1.554;2023-03-24T04:22:26;27.05;;;4.35;;
46463;SDS011;32161;48.148;-1.554;2023-03-24T04:25:11;31.40;;;3.90;;
46463;SDS011;32161;48.148;-1.554;2023-03-24T04:27:46;32.42;;;3.75;;
46463;SDS011;32161;48.148;-1.554;2023-03-24T04:30:26;19.48;;;3.30;;
46463;SDS011;32161;48.148;-1.554;2023-03-24T04:33:03;36.67;;;5.70;;
46463;SDS011;32161;48.148;-1.554;2023-03-24T04:35:35;25.15;;;4.28;;
46463;SDS011;32161;48.148;-1.554;2023-03-24T04:38:09;30.25;;;4.03;;
46463;SDS011;32161;48.148;-1.554;2023-03-24T04:40:42;35.65;;;4.38;;
46463;SDS011;32161;48.148;-1.554;2023-03-24T04:43:14;24.00;;;4.70;;
46463;SDS011;32161;48.148;-1.554;2023-03-24T04:45:49;27.73;;;4.15;;
46463;SDS011;32161;48.148;-1.554;2023-03-24T04:48:18;39.03;;;6.10;;
46463;SDS011;32161;48.148;-1.554;2023-03-24T04:50:48;35.75;;;5.40;;
46463;SDS011;32161;48.148;-1.554;2023-03-24T04:53:20;27.42;;;4.95;;
46463;SDS011;32161;48.148;-1.554;2023-03-24T04:55:54;26.23;;;4.32;;
46463;SDS011;32161;48.148;-1.554;2023-03-24T04:58:30;37.17;;;5.05;;
46463;SDS011;32161;48.148;-1.554;2023-03-24T05:00:58;25.05;;;5.22;;
46463;SDS011;32161;48.148;-1.554;2023-03-24T05:03:28;26.50;;;4.28;;
46463;SDS011;32161;48.148;-1.554;2023-03-24T05:05:56;33.92;;;4.60;;
46463;SDS011;32161;48.148;-1.554;2023-03-24T05:08:24;30.42;;;4.65;;
46463;SDS011;32161;48.148;-1.554;2023-03-24T05:10:51;21.75;;;3.65;;
46463;SDS011;32161;48.148;-1.554;2023-03-24T05:13:19;28.88;;;4.15;;
46463;SDS011;32161;48.148;-1.554;2023-03-24T05:15:46;29.15;;;5.10;;
46463;SDS011;32161;48.148;-1.554;2023-03-24T05:18:14;28.88;;;4.28;;
46463;SDS011;32161;48.148;-1.554;2023-03-24T05:20:43;29.52;;;5.45;;
46463;SDS011;32161;48.148;-1.554;2023-03-24T05:23:10;29.20;;;4.40;;
46463;SDS011;32161;48.148;-1.554;2023-03-24T05:25:38;41.60;;;5.30;;
46463;SDS011;32161;48.148;-1.554;2023-03-24T05:28:05;31.83;;;4.47;;
46463;SDS011;32161;48.148;-1.554;2023-03-24T05:30:33;32.72;;;4.85;;
46463;SDS011;32161;48.148;-1.554;2023-03-24T05:33:01;30.67;;;4.50;;
46463;SDS011;32161;48.148;-1.554;2023-03-24T05:35:28;31.40;;;5.28;;
46463;SDS011;32161;48.148;-1.554;2023-03-24T05:37:57;37.50;;;6.20;;
46463;SDS011;32161;48.148;-1.554;2023-03-24T05:40:25;31.02;;;5.18;;
46463;SDS011;32161;48.148;-1.554;2023-03-24T05:42:53;25.30;;;4.30;;
46463;SDS011;32161;48.148;-1.554;2023-03-24T05:45:20;28.88;;;4.22;;
46463;SDS011;32161;48.148;-1.554;2023-03-24T05:47:49;28.45;;;4.45;;
46463;SDS011;32161;48.148;-1.554;2023-03-24T05:50:16;34.63;;;4.72;;
46463;SDS011;32161;48.148;-1.554;2023-03-24T05:52:44;27.50;;;3.95;;
46463;SDS011;32161;48.148;-1.554;2023-03-24T05:55:13;31.48;;;4.93;;
46463;SDS011;32161;48.148;-1.554;2023-03-24T05:57:41;28.48;;;4.25;;
46463;SDS011;32161;48.148;-1.554;2023-03-24T06:00:09;29.33;;;4.55;;
46463;SDS011;32161;48.148;-1.554;2023-03-24T06:02:42;33.60;;;5.63;;
46463;SDS011;32161;48.148;-1.554;2023-03-24T06:05:10;25.38;;;5.40;;
46463;SDS011;32161;48.148;-1.554;2023-03-24T06:07:38;29.02;;;5.65;;
46463;SDS011;32161;48.148;-1.554;2023-03-24T06:10:07;30.08;;;4.88;;
46463;SDS011;32161;48.148;-1.554;2023-03-24T06:15:07;31.88;;;5.45;;
46463;SDS011;32161;48.148;-1.554;2023-03-24T06:17:36;24.13;;;4.57;;
46463;SDS011;32161;48.148;-1.554;2023-03-24T06:20:07;29.83;;;4.07;;
46463;SDS011;32161;48.148;-1.554;2023-03-24T06:22:40;24.05;;;4.60;;
46463;SDS011;32161;48.148;-1.554;2023-03-24T06:25:09;24.73;;;4.30;;
46463;SDS011;32161;48.148;-1.554;2023-03-24T06:27:42;16.35;;;3.95;;
46463;SDS011;32161;48.148;-1.554;2023-03-24T06:30:11;27.45;;;4.00;;
46463;SDS011;32161;48.148;-1.554;2023-03-24T06:32:42;27.57;;;4.57;;
46463;SDS011;32161;48.148;-1.554;2023-03-24T06:35:11;29.30;;;4.80;;
46463;SDS011;32161;48.148;-1.554;2023-03-24T06:37:39;28.38;;;4.07;;
46463;SDS011;32161;48.148;-1.554;2023-03-24T06:40:07;26.98;;;5.03;;
46463;SDS011;32161;48.148;-1.554;2023-03-24T06:42:39;26.17;;;4.45;;
46463;SDS011;32161;48.148;-1.554;2023-03-24T06:45:09;35.60;;;4.55;;
46463;SDS011;32161;48.148;-1.554;2023-03-24T06:47:37;36.45;;;6.00;;
46463;SDS011;32161;48.148;-1.554;2023-03-24T06:50:05;24.98;;;4.18;;
46463;SDS011;32161;48.148;-1.554;2023-03-24T06:52:33;27.05;;;3.72;;
46463;SDS011;32161;48.148;-1.554;2023-03-24T06:55:01;37.03;;;5.00;;
46463;SDS011;32161;48.148;-1.554;2023-03-24T06:57:29;32.65;;;5.18;;
46463;SDS011;32161;48.148;-1.554;2023-03-24T06:59:58;30.08;;;4.05;;
46463;SDS011;32161;48.148;-1.554;2023-03-24T07:02:33;30.10;;;4.72;;
46463;SDS011;32161;48.148;-1.554;2023-03-24T07:05:01;37.83;;;4.78;;
46463;SDS011;32161;48.148;-1.554;2023-03-24T07:07:32;27.67;;;5.65;;
46463;SDS011;32161;48.148;-1.554;2023-03-24T07:10:01;31.80;;;5.38;;
46463;SDS011;32161;48.148;-1.554;2023-03-24T07:12:29;35.00;;;6.57;;
46463;SDS011;32161;48.148;-1.554;2023-03-24T07:14:59;28.73;;;3.97;;
46463;SDS011;32161;48.148;-1.554;2023-03-24T07:17:28;32.38;;;4.22;;
46463;SDS011;32161;48.148;-1.554;2023-03-24T07:19:56;26.58;;;5.25;;
46463;SDS011;32161;48.148;-1.554;2023-03-24T07:22:23;29.75;;;5.25;;
46463;SDS011;32161;48.148;-1.554;2023-03-24T07:24:51;38.20;;;5.65;;
46463;SDS011;32161;48.148;-1.554;2023-03-24T07:27:20;29.40;;;5.68;;
46463;SDS011;32161;48.148;-1.554;2023-03-24T07:29:48;30.60;;;4.30;;
46463;SDS011;32161;48.148;-1.554;2023-03-24T07:32:16;43.22;;;5.95;;
46463;SDS011;32161;48.148;-1.554;2023-03-24T07:34:44;29.70;;;4.97;;
46463;SDS011;32161;48.148;-1.554;2023-03-24T07:37:13;31.48;;;6.22;;
46463;SDS011;32161;48.148;-1.554;2023-03-24T07:39:41;35.85;;;5.75;;
46463;SDS011;32161;48.148;-1.554;2023-03-24T07:42:08;25.88;;;4.25;;
46463;SDS011;32161;48.148;-1.554;2023-03-24T07:44:36;32.78;;;6.15;;
46463;SDS011;32161;48.148;-1.554;2023-03-24T07:47:04;32.95;;;6.40;;
46463;SDS011;32161;48.148;-1.554;2023-03-24T07:49:33;32.75;;;5.18;;
46463;SDS011;32161;48.148;-1.554;2023-03-24T07:52:00;30.73;;;5.03;;
46463;SDS011;32161;48.148;-1.554;2023-03-24T07:54:30;34.75;;;5.75;;
46463;SDS011;32161;48.148;-1.554;2023-03-24T07:56:58;35.22;;;5.72;;
46463;SDS011;32161;48.148;-1.554;2023-03-24T07:59:26;29.45;;;4.85;;
46463;SDS011;32161;48.148;-1.554;2023-03-24T08:01:54;27.92;;;4.40;;
46463;SDS011;32161;48.148;-1.554;2023-03-24T08:04:22;32.40;;;5.10;;
46463;SDS011;32161;48.148;-1.554;2023-03-24T08:06:52;36.58;;;5.30;;
46463;SDS011;32161;48.148;-1.554;2023-03-24T08:09:20;30.00;;;4.10;;
46463;SDS011;32161;48.148;-1.554;2023-03-24T08:11:48;23.83;;;4.00;;
46463;SDS011;32161;48.148;-1.554;2023-03-24T08:14:15;31.75;;;5.20;;
46463;SDS011;32161;48.148;-1.554;2023-03-24T08:16:43;29.55;;;4.43;;
46463;SDS011;32161;48.148;-1.554;2023-03-24T08:19:11;26.40;;;4.55;;
46463;SDS011;32161;48.148;-1.554;2023-03-24T08:21:38;23.95;;;3.80;;
46463;SDS011;32161;48.148;-1.554;2023-03-24T08:24:07;25.17;;;4.43;;
46463;SDS011;32161;48.148;-1.554;2023-03-24T08:26:35;32.45;;;4.72;;
46463;SDS011;32161;48.148;-1.554;2023-03-24T08:29:02;16.02;;;2.75;;
46463;SDS011;32161;48.148;-1.554;2023-03-24T08:31:31;22.08;;;4.28;;
46463;SDS011;32161;48.148;-1.554;2023-03-24T08:33:59;21.77;;;3.83;;
46463;SDS011;32161;48.148;-1.554;2023-03-24T08:36:28;23.30;;;4.28;;
46463;SDS011;32161;48.148;-1.554;2023-03-24T08:38:56;25.00;;;3.83;;
46463;SDS011;32161;48.148;-1.554;2023-03-24T08:41:26;20.55;;;4.82;;
46463;SDS011;32161;48.148;-1.554;2023-03-24T08:43:59;20.08;;;3.38;;
46463;SDS011;32161;48.148;-1.554;2023-03-24T08:46:28;23.00;;;3.95;;
46463;SDS011;32161;48.148;-1.554;2023-03-24T08:48:56;22.80;;;3.97;;
46463;SDS011;32161;48.148;-1.554;2023-03-24T08:51:25;19.42;;;3.70;;
46463;SDS011;32161;48.148;-1.554;2023-03-24T08:53:53;24.13;;;3.80;;
46463;SDS011;32161;48.148;-1.554;2023-03-24T08:56:21;21.38;;;3.55;;
46463;SDS011;32161;48.148;-1.554;2023-03-24T08:58:51;26.55;;;4.30;;
46463;SDS011;32161;48.148;-1.554;2023-03-24T09:01:18;16.13;;;3.20;;
46463;SDS011;32161;48.148;-1.554;2023-03-24T09:03:47;26.35;;;4.35;;
46463;SDS011;32161;48.148;-1.554;2023-03-24T09:06:15;21.30;;;3.63;;
46463;SDS011;32161;48.148;-1.554;2023-03-24T09:08:42;22.15;;;3.97;;
46463;SDS011;32161;48.148;-1.554;2023-03-24T09:11:13;31.63;;;3.97;;
46463;SDS011;32161;48.148;-1.554;2023-03-24T09:13:42;29.88;;;4.25;;
46463;SDS011;32161;48.148;-1.554;2023-03-24T09:16:11;25.38;;;3.83;;
46463;SDS011;32161;48.148;-1.554;2023-03-24T09:18:39;23.67;;;3.60;;
46463;SDS011;32161;48.148;-1.554;2023-03-24T09:21:08;28.77;;;3.60;;
46463;SDS011;32161;48.148;-1.554;2023-03-24T09:23:35;22.38;;;4.20;;
46463;SDS011;32161;48.148;-1.554;2023-03-24T09:26:04;26.00;;;4.10;;
46463;SDS011;32161;48.148;-1.554;2023-03-24T09:28:32;27.85;;;4.30;;
46463;SDS011;32161;48.148;-1.554;2023-03-24T09:31:01;18.30;;;3.58;;
46463;SDS011;32161;48.148;-1.554;2023-03-24T09:33:32;21.58;;;4.57;;
46463;SDS011;32161;48.148;-1.554;2023-03-24T09:36:00;27.73;;;5.07;;
46463;SDS011;32161;48.148;-1.554;2023-03-24T09:38:29;17.80;;;4.70;;
46463;SDS011;32161;48.148;-1.554;2023-03-24T09:40:59;16.50;;;3.25;;
46463;SDS011;32161;48.148;-1.554;2023-03-24T09:43:30;17.70;;;3.10;;
46463;SDS011;32161;48.148;-1.554;2023-03-24T09:46:04;25.05;;;3.40;;
46463;SDS011;32161;48.148;-1.554;2023-03-24T09:48:39;23.35;;;3.85;;
46463;SDS011;32161;48.148;-1.554;2023-03-24T09:51:17;19.85;;;3.50;;
46463;SDS011;32161;48.148;-1.554;2023-03-24T09:53:49;23.00;;;3.75;;
46463;SDS011;32161;48.148;-1.554;2023-03-24T09:56:25;21.20;;;2.72;;
46463;SDS011;32161;48.148;-1.554;2023-03-24T09:59:03;20.25;;;3.90;;
46463;SDS011;32161;48.148;-1.554;2023-03-24T10:01:35;17.27;;;3.42;;
46463;SDS011;32161;48.148;-1.554;2023-03-24T10:04:06;20.77;;;3.22;;
46463;SDS011;32161;48.148;-1.554;2023-03-24T10:06:40;19.65;;;3.85;;
46463;SDS011;32161;48.148;-1.554;2023-03-24T10:09:13;16.67;;;3.65;;
46463;SDS011;32161;48.148;-1.554;2023-03-24T10:11:56;15.13;;;3.95;;
46463;SDS011;32161;48.148;-1.554;2023-03-24T10:14:48;16.17;;;3.35;;
46463;SDS011;32161;48.148;-1.554;2023-03-24T10:17:33;23.38;;;4.38;;
46463;SDS011;32161;48.148;-1.554;2023-03-24T10:20:15;11.50;;;2.63;;
46463;SDS011;32161;48.148;-1.554;2023-03-24T10:22:58;15.60;;;2.67;;
46463;SDS011;32161;48.148;-1.554;2023-03-24T10:25:36;17.25;;;2.72;;
46463;SDS011;32161;48.148;-1.554;2023-03-24T10:28:18;15.43;;;2.65;;
46463;SDS011;32161;48.148;-1.554;2023-03-24T10:30:49;13.02;;;2.67;;
46463;SDS011;32161;48.148;-1.554;2023-03-24T10:33:19;18.08;;;3.45;;
46463;SDS011;32161;48.148;-1.554;2023-03-24T10:35:53;16.60;;;3.03;;
46463;SDS011;32161;48.148;-1.554;2023-03-24T10:38:26;23.05;;;3.60;;
46463;SDS011;32161;48.148;-1.554;2023-03-24T10:40:54;13.68;;;3.47;;
46463;SDS011;32161;48.148;-1.554;2023-03-24T10:43:22;19.30;;;3.63;;
46463;SDS011;32161;48.148;-1.554;2023-03-24T10:45:52;15.27;;;4.32;;
46463;SDS011;32161;48.148;-1.554;2023-03-24T10:51:10;17.08;;;2.92;;
46463;SDS011;32161;48.148;-1.554;2023-03-24T10:53:43;17.88;;;2.67;;
46463;SDS011;32161;48.148;-1.554;2023-03-24T10:56:16;12.98;;;2.67;;
46463;SDS011;32161;48.148;-1.554;2023-03-24T10:59:04;11.25;;;2.28;;
46463;SDS011;32161;48.148;-1.554;2023-03-24T11:04:13;7.53;;;1.98;;
46463;SDS011;32161;48.148;-1.554;2023-03-24T11:06:54;7.55;;;1.80;;
46463;SDS011;32161;48.148;-1.554;2023-03-24T11:09:28;7.97;;;1.35;;
46463;SDS011;32161;48.148;-1.554;2023-03-24T11:12:04;7.95;;;1.42;;
46463;SDS011;32161;48.148;-1.554;2023-03-24T11:14:45;11.55;;;1.23;;
46463;SDS011;32161;48.148;-1.554;2023-03-24T11:17:13;10.18;;;1.63;;
46463;SDS011;32161;48.148;-1.554;2023-03-24T11:19:49;6.85;;;1.70;;
46463;SDS011;32161;48.148;-1.554;2023-03-24T11:22:19;9.27;;;1.60;;
46463;SDS011;32161;48.148;-1.554;2023-03-24T11:24:48;11.13;;;2.58;;
46463;SDS011;32161;48.148;-1.554;2023-03-24T11:27:18;10.52;;;2.35;;
46463;SDS011;32161;48.148;-1.554;2023-03-24T11:29:48;5.90;;;1.20;;
46463;SDS011;32161;48.148;-1.554;2023-03-24T11:32:21;10.90;;;1.92;;
46463;SDS011;32161;48.148;-1.554;2023-03-24T11:34:56;14.63;;;2.40;;
46463;SDS011;32161;48.148;-1.554;2023-03-24T11:37:33;12.20;;;3.03;;
46463;SDS011;32161;48.148;-1.554;2023-03-24T11:40:16;11.35;;;2.15;;
46463;SDS011;32161;48.148;-1.554;2023-03-24T11:42:49;13.50;;;2.65;;
46463;SDS011;32161;48.148;-1.554;2023-03-24T11:45:22;17.95;;;4.63;;
46463;SDS011;32161;48.148;-1.554;2023-03-24T11:47:55;17.45;;;3.03;;
46463;SDS011;32161;48.148;-1.554;2023-03-24T11:50:26;15.95;;;3.30;;
46463;SDS011;32161;48.148;-1.554;2023-03-24T11:52:59;20.45;;;3.65;;
46463;SDS011;32161;48.148;-1.554;2023-03-24T11:55:36;19.40;;;3.38;;
46463;SDS011;32161;48.148;-1.554;2023-03-24T11:58:14;20.33;;;3.75;;
46463;SDS011;32161;48.148;-1.554;2023-03-24T12:00:54;18.70;;;2.88;;
46463;SDS011;32161;48.148;-1.554;2023-03-24T12:03:36;18.58;;;3.78;;
46463;SDS011;32161;48.148;-1.554;2023-03-24T12:06:33;23.50;;;3.50;;
46463;SDS011;32161;48.148;-1.554;2023-03-24T12:09:26;15.18;;;3.08;;
46463;SDS011;32161;48.148;-1.554;2023-03-24T12:14:57;27.48;;;4.72;;
46463;SDS011;32161;48.148;-1.554;2023-03-24T12:17:52;14.80;;;3.10;;
46463;SDS011;32161;48.148;-1.554;2023-03-24T12:20:35;16.50;;;3.03;;
46463;SDS011;32161;48.148;-1.554;2023-03-24T12:23:23;16.40;;;2.60;;
46463;SDS011;32161;48.148;-1.554;2023-03-24T12:26:06;14.63;;;2.88;;
46463;SDS011;32161;48.148;-1.554;2023-03-24T12:28:47;15.18;;;2.72;;
46463;SDS011;32161;48.148;-1.554;2023-03-24T12:31:39;16.33;;;2.65;;
46463;SDS011;32161;48.148;-1.554;2023-03-24T12:38:20;17.90;;;3.08;;
46463;SDS011;32161;48.148;-1.554;2023-03-24T12:41:17;12.65;;;2.20;;
46463;SDS011;32161;48.148;-1.554;2023-03-24T12:44:02;6.55;;;2.20;;
46463;SDS011;32161;48.148;-1.554;2023-03-24T12:46:47;13.20;;;2.17;;
46463;SDS011;32161;48.148;-1.554;2023-03-24T12:49:27;11.93;;;2.67;;
46463;SDS011;32161;48.148;-1.554;2023-03-24T12:52:15;12.55;;;2.53;;
46463;SDS011;32161;48.148;-1.554;2023-03-24T12:55:07;17.10;;;2.13;;
46463;SDS011;32161;48.148;-1.554;2023-03-24T12:57:44;11.55;;;2.35;;
46463;SDS011;32161;48.148;-1.554;2023-03-24T13:00:17;8.95;;;2.60;;
46463;SDS011;32161;48.148;-1.554;2023-03-24T13:02:52;13.73;;;2.67;;
46463;SDS011;32161;48.148;-1.554;2023-03-24T13:05:23;15.93;;;2.70;;
46463;SDS011;32161;48.148;-1.554;2023-03-24T13:07:58;17.20;;;2.85;;
46463;SDS011;32161;48.148;-1.554;2023-03-24T13:10:33;17.20;;;2.75;;
46463;SDS011;32161;48.148;-1.554;2023-03-24T13:13:07;13.20;;;2.38;;
46463;SDS011;32161;48.148;-1.554;2023-03-24T13:15:42;8.98;;;2.53;;
46463;SDS011;32161;48.148;-1.554;2023-03-24T13:18:17;21.85;;;3.92;;
46463;SDS011;32161;48.148;-1.554;2023-03-24T13:20:54;16.88;;;3.00;;
46463;SDS011;32161;48.148;-1.554;2023-03-24T13:23:37;19.27;;;2.70;;
46463;SDS011;32161;48.148;-1.554;2023-03-24T13:26:16;16.17;;;2.45;;
46463;SDS011;32161;48.148;-1.554;2023-03-24T13:28:56;19.02;;;3.17;;
46463;SDS011;32161;48.148;-1.554;2023-03-24T13:31:38;17.58;;;3.22;;
46463;SDS011;32161;48.148;-1.554;2023-03-24T13:34:16;14.32;;;3.13;;
46463;SDS011;32161;48.148;-1.554;2023-03-24T13:36:54;18.33;;;3.55;;
46463;SDS011;32161;48.148;-1.554;2023-03-24T13:39:27;19.17;;;3.28;;
46463;SDS011;32161;48.148;-1.554;2023-03-24T13:41:56;14.10;;;3.35;;
46463;SDS011;32161;48.148;-1.554;2023-03-24T13:44:27;13.38;;;2.97;;
46463;SDS011;32161;48.148;-1.554;2023-03-24T13:47:10;10.73;;;4.03;;
46463;SDS011;32161;48.148;-1.554;2023-03-24T13:49:40;13.75;;;2.63;;
46463;SDS011;32161;48.148;-1.554;2023-03-24T13:52:22;14.68;;;2.80;;
46463;SDS011;32161;48.148;-1.554;2023-03-24T13:54:56;9.80;;;1.80;;
46463;SDS011;32161;48.148;-1.554;2023-03-24T13:57:27;7.68;;;1.50;;
46463;SDS011;32161;48.148;-1.554;2023-03-24T14:00:14;5.88;;;1.23;;
46463;SDS011;32161;48.148;-1.554;2023-03-24T14:02:47;10.45;;;1.55;;
46463;SDS011;32161;48.148;-1.554;2023-03-24T14:05:30;9.90;;;1.40;;
46463;SDS011;32161;48.148;-1.554;2023-03-24T14:08:11;11.70;;;2.40;;
46463;SDS011;32161;48.148;-1.554;2023-03-24T14:10:46;8.75;;;2.40;;
46463;SDS011;32161;48.148;-1.554;2023-03-24T14:13:19;14.48;;;3.85;;
46463;SDS011;32161;48.148;-1.554;2023-03-24T14:16:00;13.70;;;2.42;;
46463;SDS011;32161;48.148;-1.554;2023-03-24T14:19:17;17.10;;;3.20;;
46463;SDS011;32161;48.148;-1.554;2023-03-24T14:21:57;6.25;;;2.00;;
46463;SDS011;32161;48.148;-1.554;2023-03-24T14:24:54;7.43;;;1.80;;
46463;SDS011;32161;48.148;-1.554;2023-03-24T14:27:34;5.85;;;1.00;;
46463;SDS011;32161;48.148;-1.554;2023-03-24T14:30:12;1.20;;;0.47;;
46463;SDS011;32161;48.148;-1.554;2023-03-24T14:32:47;4.97;;;0.70;;
46463;SDS011;32161;48.148;-1.554;2023-03-24T14:35:20;3.22;;;0.75;;
46463;SDS011;32161;48.148;-1.554;2023-03-24T14:37:58;2.97;;;0.82;;
46463;SDS011;32161;48.148;-1.554;2023-03-24T14:40:32;5.20;;;1.08;;
46463;SDS011;32161;48.148;-1.554;2023-03-24T14:43:03;6.85;;;1.73;;
46463;SDS011;32161;48.148;-1.554;2023-03-24T14:45:52;10.18;;;1.00;;
46463;SDS011;32161;48.148;-1.554;2023-03-24T14:48:35;4.55;;;1.10;;
46463;SDS011;32161;48.148;-1.554;2023-03-24T14:51:27;4.30;;;0.77;;
46463;SDS011;32161;48.148;-1.554;2023-03-24T14:54:03;7.78;;;1.20;;
46463;SDS011;32161;48.148;-1.554;2023-03-24T14:56:35;6.00;;;0.80;;
46463;SDS011;32161;48.148;-1.554;2023-03-24T14:59:08;1.60;;;0.60;;
46463;SDS011;32161;48.148;-1.554;2023-03-24T15:01:47;1.92;;;0.77;;
46463;SDS011;32161;48.148;-1.554;2023-03-24T15:04:23;1.73;;;0.85;;
46463;SDS011;32161;48.148;-1.554;2023-03-24T15:06:50;4.25;;;0.80;;
46463;SDS011;32161;48.148;-1.554;2023-03-24T15:09:18;4.50;;;0.82;;
46463;SDS011;32161;48.148;-1.554;2023-03-24T15:11:46;5.18;;;1.25;;
46463;SDS011;32161;48.148;-1.554;2023-03-24T15:14:18;3.45;;;0.77;;
46463;SDS011;32161;48.148;-1.554;2023-03-24T15:16:53;4.55;;;0.90;;
46463;SDS011;32161;48.148;-1.554;2023-03-24T15:19:25;4.32;;;1.00;;
46463;SDS011;32161;48.148;-1.554;2023-03-24T15:21:56;2.78;;;0.80;;